Terminal Aerodrome Forecast
Issued by NWS Buffalo, NY

Home | Current Version | Previous Version | Text Only | Print | Product List | Glossary On
Versions: 1 2 3 4 5 6 7 8 9 10 11 12 13 14 15 16 17 18 19 20 21 22 23 24 25 26 27 28 29
505
FTUS41 KBUF 101248 AAC
TAFBUF
TAF AMD
KBUF 101248Z 1013/1112 25015G21KT 3SM -SN OVC015
      TEMPO 1013/1015 1SM -SN
     FM101700 27014G22KT 3SM -SHSN OVC015
     FM110000 27014G22KT 4SM -SHSN OVC035
     FM110300 27013G20KT P6SM VCSH OVC035
     FM110700 28013G20KT P6SM VCSH BKN050=

USA.gov is the U.S. government's official web portal to all federal, state and local government web resources and services.